Terminal Aerodrome Forecast
Issued by NWS

Home | Current Version | Previous Version | Text Only | Print | Product List | Glossary On
Versions: 1 2 3 4 5 6 7 8 9 10 11 12 13 14
000
FTUS42 KMLB 042052 AAA
TAFISM
TAF AMD
KISM 042052Z 0421/0518 33008KT P6SM VCTS SCT035CB BKN070 OVC100
      TEMPO 0421/0422 3SM TSRA BKN035CB
     FM050000 28003KT P6SM FEW040 SCT120 BKN200
     FM051400 36004KT P6SM FEW025 SCT150 BKN250=

USA.gov is the U.S. government's official web portal to all federal, state and local government web resources and services.